Time;durP1;ratioP1;P1;durP2;ratioP2;P2;SDS_P1;SDS_P2;PMS_P1;PMS_P2;Temp;Humidity;BMP_temperature;BMP_pressure;BME280_temperature;BME280_humidity;BME280_pressure;Samples;Min_cycle;Max_cycle;Signal;HPM_P1;HPM_P2
2022/02/21 00:00:12;;;;;;;11.07;0.97;;;;;;;;;;5045320;28;20581;-68
2022/02/21 00:02:42;;;;;;;4.97;1.20;;;;;;;;;;5037444;28;20331;-69
2022/02/21 00:05:07;;;;;;;3.60;0.73;;;;;;;;;;5045552;28;20202;-68
2022/02/21 00:07:33;;;;;;;5.47;0.70;;;;;;;;;;5045679;28;20186;-68
2022/02/21 00:09:58;;;;;;;6.17;0.87;;;;;;;;;;5043310;28;20727;-68
2022/02/21 00:12:23;;;;;;;9.27;0.90;;;;;;;;;;5041074;28;20175;-68
2022/02/21 00:14:49;;;;;;;8.00;1.20;;;;;;;;;;5044858;28;20200;-68
2022/02/21 00:17:14;;;;;;;9.20;1.17;;;;;;;;;;5043694;28;20281;-68
2022/02/21 00:19:39;;;;;;;6.60;1.03;;;;;;;;;;5044025;28;20525;-68
2022/02/21 00:22:05;;;;;;;10.10;1.23;;;;;;;;;;5043339;28;20203;-68
2022/02/21 00:24:30;;;;;;;8.83;1.60;;;;;;;;;;5035057;28;20313;-70
2022/02/21 00:26:56;;;;;;;10.13;1.30;;;;;;;;;;5043439;28;20232;-69
2022/02/21 00:29:21;;;;;;;6.93;1.43;;;;;;;;;;5045338;28;20616;-68
2022/02/21 00:31:46;;;;;;;10.73;1.43;;;;;;;;;;5045138;28;20205;-68
2022/02/21 00:34:12;;;;;;;13.83;1.27;;;;;;;;;;5036226;28;20209;-68
2022/02/21 00:36:37;;;;;;;12.47;1.33;;;;;;;;;;5043664;28;20257;-68
2022/02/21 00:39:03;;;;;;;13.77;1.73;;;;;;;;;;5040042;28;20205;-69
2022/02/21 00:41:28;;;;;;;8.73;1.23;;;;;;;;;;5044865;28;20268;-68
2022/02/21 00:43:54;;;;;;;10.83;1.70;;;;;;;;;;5039388;28;20282;-68
2022/02/21 00:46:19;;;;;;;11.13;1.50;;;;;;;;;;5042587;28;20186;-68
2022/02/21 00:48:44;;;;;;;10.77;1.77;;;;;;;;;;5042432;28;20178;-68
2022/02/21 00:51:10;;;;;;;10.50;1.37;;;;;;;;;;5042720;28;20196;-68
2022/02/21 00:53:35;;;;;;;9.33;2.07;;;;;;;;;;5039677;28;20182;-68
2022/02/21 00:56:02;;;;;;;4.73;1.10;;;;;;;;;;5043687;28;20192;-68
2022/02/21 00:58:27;;;;;;;11.87;1.53;;;;;;;;;;5055620;28;20451;-68
2022/02/21 01:00:52;;;;;;;10.97;1.83;;;;;;;;;;5038390;28;20260;-68
2022/02/21 01:03:18;;;;;;;13.87;1.70;;;;;;;;;;5044933;28;20181;-68
2022/02/21 01:05:43;;;;;;;12.10;1.93;;;;;;;;;;5044658;28;20177;-68
2022/02/21 01:08:08;;;;;;;9.03;1.57;;;;;;;;;;5056937;28;20643;-69
2022/02/21 01:10:38;;;;;;;13.63;1.73;;;;;;;;;;5045329;28;20689;-69
2022/02/21 01:13:04;;;;;;;12.57;2.03;;;;;;;;;;5041313;28;20238;-69
2022/02/21 01:15:29;;;;;;;18.90;2.97;;;;;;;;;;5043414;28;20204;-69
2022/02/21 01:17:55;;;;;;;11.40;2.17;;;;;;;;;;5044318;28;20669;-69
2022/02/21 01:20:21;;;;;;;14.20;1.80;;;;;;;;;;5044153;28;20182;-69
2022/02/21 01:22:46;;;;;;;13.50;2.20;;;;;;;;;;5044790;28;20193;-69
2022/02/21 01:25:12;;;;;;;12.53;1.87;;;;;;;;;;5045926;28;20208;-68
2022/02/21 01:27:37;;;;;;;18.27;2.00;;;;;;;;;;5051501;28;20196;-67
2022/02/21 01:30:05;;;;;;;15.10;2.30;;;;;;;;;;5047216;28;20606;-67
2022/02/21 01:32:31;;;;;;;14.97;1.90;;;;;;;;;;5044927;28;20204;-68
2022/02/21 01:34:56;;;;;;;16.63;2.83;;;;;;;;;;5046274;28;20686;-68
2022/02/21 01:37:21;;;;;;;13.77;2.27;;;;;;;;;;5051285;28;20188;-68
2022/02/21 01:39:48;;;;;;;12.87;1.80;;;;;;;;;;5045811;28;20200;-68
2022/02/21 01:42:13;;;;;;;9.23;1.90;;;;;;;;;;5037851;28;20201;-68
2022/02/21 01:44:41;;;;;;;14.13;2.20;;;;;;;;;;5040111;28;20197;-68
2022/02/21 01:47:09;;;;;;;14.77;2.00;;;;;;;;;;5041173;28;20185;-68
2022/02/21 01:49:35;;;;;;;16.80;2.00;;;;;;;;;;5043783;28;20271;-68
2022/02/21 01:52:03;;;;;;;14.40;2.17;;;;;;;;;;5041353;28;20344;-68
2022/02/21 01:54:30;;;;;;;19.40;2.00;;;;;;;;;;5040955;28;20952;-68
2022/02/21 01:56:56;;;;;;;14.40;1.97;;;;;;;;;;5044047;28;20264;-68
2022/02/21 01:59:21;;;;;;;12.03;1.97;;;;;;;;;;5040578;28;20546;-68
2022/02/21 02:01:48;;;;;;;16.27;1.97;;;;;;;;;;5042629;28;20189;-68
2022/02/21 02:04:13;;;;;;;14.53;2.30;;;;;;;;;;5040096;28;20280;-68
2022/02/21 02:06:38;;;;;;;15.57;2.37;;;;;;;;;;5043962;28;20285;-68
2022/02/21 02:09:04;;;;;;;15.70;2.77;;;;;;;;;;5045133;28;20197;-68
2022/02/21 02:11:32;;;;;;;18.53;1.93;;;;;;;;;;5043148;28;20220;-68
2022/02/21 02:13:57;;;;;;;15.80;1.70;;;;;;;;;;5041667;28;20212;-68
2022/02/21 02:16:23;;;;;;;14.70;2.13;;;;;;;;;;5043982;28;20177;-68
2022/02/21 02:18:48;;;;;;;18.97;2.50;;;;;;;;;;5049726;28;20196;-67
2022/02/21 02:21:21;;;;;;;15.23;1.50;;;;;;;;;;5040597;28;20185;-67
2022/02/21 02:23:47;;;;;;;17.13;2.53;;;;;;;;;;5034583;28;20185;-67
2022/02/21 02:26:13;;;;;;;11.63;2.20;;;;;;;;;;5040767;28;20185;-68
2022/02/21 02:28:38;;;;;;;8.23;1.50;;;;;;;;;;5048930;28;20551;-68
2022/02/21 02:31:03;;;;;;;15.13;1.80;;;;;;;;;;5040934;28;20252;-68
2022/02/21 02:33:32;;;;;;;8.50;1.80;;;;;;;;;;5045390;28;20193;-68
2022/02/21 02:36:00;;;;;;;12.10;1.50;;;;;;;;;;5041385;28;20197;-68
2022/02/21 02:38:25;;;;;;;14.37;2.73;;;;;;;;;;5043088;28;20188;-68
2022/02/21 02:40:51;;;;;;;15.63;2.30;;;;;;;;;;5045257;28;20590;-68
2022/02/21 02:43:16;;;;;;;14.93;1.97;;;;;;;;;;5049255;28;21012;-68
2022/02/21 02:45:44;;;;;;;11.00;1.93;;;;;;;;;;5045268;28;20196;-68
2022/02/21 02:48:09;;;;;;;9.73;1.50;;;;;;;;;;5046691;28;20739;-69
2022/02/21 02:50:34;;;;;;;17.70;1.93;;;;;;;;;;5043313;28;20476;-68
2022/02/21 02:53:00;;;;;;;10.17;1.93;;;;;;;;;;5046669;28;20186;-67
2022/02/21 02:55:25;;;;;;;10.17;1.83;;;;;;;;;;5046099;28;20204;-67
2022/02/21 02:57:51;;;;;;;9.00;1.53;;;;;;;;;;5045174;28;20197;-68
2022/02/21 03:00:17;;;;;;;13.67;1.67;;;;;;;;;;5045481;28;20259;-68
2022/02/21 03:02:43;;;;;;;10.57;1.73;;;;;;;;;;5049005;28;20215;-69
2022/02/21 03:05:08;;;;;;;8.47;1.53;;;;;;;;;;5047375;28;20210;-68
2022/02/21 03:07:33;;;;;;;9.17;1.60;;;;;;;;;;5048852;28;20181;-68
2022/02/21 03:09:59;;;;;;;7.10;1.47;;;;;;;;;;5042237;28;20237;-68
2022/02/21 03:12:25;;;;;;;16.43;1.97;;;;;;;;;;5048432;28;20187;-68
2022/02/21 03:14:51;;;;;;;10.37;1.47;;;;;;;;;;5045319;28;20288;-68
2022/02/21 03:17:16;;;;;;;8.20;1.43;;;;;;;;;;5050665;28;20300;-68
2022/02/21 03:19:41;;;;;;;8.83;1.63;;;;;;;;;;5050189;28;20209;-68
2022/02/21 03:22:07;;;;;;;11.33;1.47;;;;;;;;;;5048491;28;20276;-67
2022/02/21 03:24:32;;;;;;;15.47;1.87;;;;;;;;;;5045630;28;20276;-68
2022/02/21 03:26:57;;;;;;;9.37;1.60;;;;;;;;;;5042001;28;20232;-68
2022/02/21 03:29:23;;;;;;;18.00;2.37;;;;;;;;;;5044786;28;20308;-68
2022/02/21 03:31:48;;;;;;;11.50;1.57;;;;;;;;;;5045103;28;20668;-68
2022/02/21 03:34:13;;;;;;;15.73;1.90;;;;;;;;;;5044414;28;20592;-68
2022/02/21 03:36:39;;;;;;;8.87;1.60;;;;;;;;;;5044645;28;20576;-68
2022/02/21 03:39:04;;;;;;;7.17;1.17;;;;;;;;;;5044726;28;20280;-69
2022/02/21 03:41:30;;;;;;;7.00;1.13;;;;;;;;;;5045146;28;20264;-69
2022/02/21 03:43:56;;;;;;;9.23;1.03;;;;;;;;;;5047059;28;20559;-69
2022/02/21 03:46:21;;;;;;;5.03;1.23;;;;;;;;;;5042066;28;20211;-69
2022/02/21 03:48:46;;;;;;;8.27;1.33;;;;;;;;;;5051296;28;20197;-70
2022/02/21 03:51:12;;;;;;;7.57;1.10;;;;;;;;;;5042108;28;20217;-69
2022/02/21 03:53:37;;;;;;;11.07;1.83;;;;;;;;;;5036201;28;20197;-68
2022/02/21 03:56:03;;;;;;;7.17;0.97;;;;;;;;;;5046096;28;20182;-69
2022/02/21 03:58:28;;;;;;;8.77;1.30;;;;;;;;;;5053228;28;20220;-69
2022/02/21 04:00:53;;;;;;;12.90;2.00;;;;;;;;;;5050533;28;20185;-68
2022/02/21 04:03:19;;;;;;;14.23;1.83;;;;;;;;;;5043687;28;20224;-68
2022/02/21 04:05:44;;;;;;;10.67;1.50;;;;;;;;;;5043697;28;20493;-68
2022/02/21 04:08:09;;;;;;;11.07;1.83;;;;;;;;;;5042625;28;20193;-68
2022/02/21 04:10:35;;;;;;;14.93;1.90;;;;;;;;;;5045043;28;20229;-68
2022/02/21 04:13:00;;;;;;;18.03;1.90;;;;;;;;;;5045294;28;20186;-69
2022/02/21 04:15:25;;;;;;;8.53;1.33;;;;;;;;;;5045196;28;20540;-68
2022/02/21 04:17:52;;;;;;;13.13;1.50;;;;;;;;;;5051543;28;20201;-68
2022/02/21 04:20:22;;;;;;;13.57;2.10;;;;;;;;;;5040844;28;20291;-68
2022/02/21 04:22:48;;;;;;;12.77;1.97;;;;;;;;;;5038081;28;20673;-68
2022/02/21 04:25:14;;;;;;;14.87;1.67;;;;;;;;;;5038832;28;20459;-68
2022/02/21 04:27:40;;;;;;;5.27;0.93;;;;;;;;;;5042191;28;20205;-68
2022/02/21 04:30:06;;;;;;;14.00;1.70;;;;;;;;;;5046899;28;20610;-68
2022/02/21 04:32:31;;;;;;;8.37;2.00;;;;;;;;;;5045246;28;20193;-68
2022/02/21 04:34:56;;;;;;;11.10;1.40;;;;;;;;;;5046605;28;20185;-67
2022/02/21 04:37:22;;;;;;;12.87;1.73;;;;;;;;;;5044214;28;20222;-67
2022/02/21 04:39:47;;;;;;;12.03;1.53;;;;;;;;;;5046905;28;20225;-67
2022/02/21 04:42:13;;;;;;;5.10;1.00;;;;;;;;;;5044359;28;20713;-68
2022/02/21 04:44:38;;;;;;;12.20;1.27;;;;;;;;;;5045235;28;20264;-67
2022/02/21 04:47:04;;;;;;;12.40;1.20;;;;;;;;;;5040450;28;20194;-68
2022/02/21 04:49:30;;;;;;;10.77;1.77;;;;;;;;;;5045025;28;20443;-67
2022/02/21 04:51:57;;;;;;;14.00;1.73;;;;;;;;;;5043397;28;20345;-67
2022/02/21 04:54:23;;;;;;;11.27;1.97;;;;;;;;;;5045407;28;20177;-67
2022/02/21 04:56:48;;;;;;;14.20;2.07;;;;;;;;;;5038560;28;20199;-68
2022/02/21 04:59:13;;;;;;;12.80;1.60;;;;;;;;;;5043805;28;20603;-68
2022/02/21 05:01:39;;;;;;;13.37;1.87;;;;;;;;;;5045239;28;20279;-68
2022/02/21 05:04:04;;;;;;;8.33;2.33;;;;;;;;;;5044645;28;20641;-68
2022/02/21 05:06:29;;;;;;;10.60;1.40;;;;;;;;;;5042008;28;20192;-68
2022/02/21 05:08:55;;;;;;;9.40;1.80;;;;;;;;;;5041693;28;20592;-67
2022/02/21 05:11:20;;;;;;;9.13;1.07;;;;;;;;;;5043402;28;20224;-67
2022/02/21 05:13:45;;;;;;;12.53;1.77;;;;;;;;;;5042209;28;20277;-68
2022/02/21 05:16:11;;;;;;;13.97;1.47;;;;;;;;;;5042015;28;20527;-68
2022/02/21 05:18:36;;;;;;;14.73;1.53;;;;;;;;;;5040923;28;20282;-67
2022/02/21 05:21:02;;;;;;;16.70;2.03;;;;;;;;;;5045132;28;20178;-67
2022/02/21 05:23:27;;;;;;;12.17;1.73;;;;;;;;;;5042728;28;20636;-68
2022/02/21 05:25:52;;;;;;;13.47;2.30;;;;;;;;;;5048422;28;20233;-67
2022/02/21 05:28:18;;;;;;;14.53;1.90;;;;;;;;;;5044926;28;20221;-67
2022/02/21 05:30:43;;;;;;;11.90;1.80;;;;;;;;;;5049560;28;20229;-67
2022/02/21 05:33:08;;;;;;;16.97;1.80;;;;;;;;;;5042736;28;20371;-67
2022/02/21 05:35:34;;;;;;;15.47;1.50;;;;;;;;;;5050013;28;20192;-68
2022/02/21 05:37:59;;;;;;;19.90;2.33;;;;;;;;;;5039580;28;20447;-67
2022/02/21 05:40:24;;;;;;;13.10;2.43;;;;;;;;;;5048202;28;20198;-67
2022/02/21 05:42:49;;;;;;;16.17;1.97;;;;;;;;;;5041741;28;20684;-68
2022/02/21 05:45:15;;;;;;;18.30;2.30;;;;;;;;;;5048741;28;20193;-68
2022/02/21 05:47:40;;;;;;;13.90;1.80;;;;;;;;;;5043869;28;20189;-67
2022/02/21 05:50:06;;;;;;;14.37;1.93;;;;;;;;;;5043699;28;20220;-67
2022/02/21 05:52:31;;;;;;;10.47;1.50;;;;;;;;;;5043056;28;20243;-67
2022/02/21 05:54:56;;;;;;;10.47;2.00;;;;;;;;;;5043340;28;20649;-67
2022/02/21 05:57:22;;;;;;;18.37;2.23;;;;;;;;;;5043275;28;20727;-67
2022/02/21 05:59:47;;;;;;;10.93;1.87;;;;;;;;;;5045484;28;20212;-67
2022/02/21 06:02:12;;;;;;;13.10;2.13;;;;;;;;;;5044063;28;20182;-67
2022/02/21 06:04:38;;;;;;;16.83;1.67;;;;;;;;;;5045113;28;20492;-67
2022/02/21 06:07:03;;;;;;;11.43;1.93;;;;;;;;;;5042478;28;20574;-66
2022/02/21 06:09:29;;;;;;;17.07;2.63;;;;;;;;;;5050839;28;20216;-67
2022/02/21 06:11:54;;;;;;;19.70;2.50;;;;;;;;;;5045575;28;20306;-67
2022/02/21 06:14:20;;;;;;;15.03;2.03;;;;;;;;;;5049209;28;20205;-67
2022/02/21 06:16:46;;;;;;;10.03;1.40;;;;;;;;;;5047102;28;20177;-67
2022/02/21 06:19:11;;;;;;;18.20;1.97;;;;;;;;;;5046620;28;20243;-67
2022/02/21 06:21:37;;;;;;;8.90;1.70;;;;;;;;;;5045625;28;20231;-68
2022/02/21 06:24:02;;;;;;;11.93;1.73;;;;;;;;;;5045369;28;20199;-67
2022/02/21 06:26:27;;;;;;;16.20;2.40;;;;;;;;;;5042871;28;20190;-67
2022/02/21 06:28:53;;;;;;;15.03;1.73;;;;;;;;;;5041927;28;20246;-67
2022/02/21 06:31:18;;;;;;;14.63;2.20;;;;;;;;;;5046562;28;20625;-67
2022/02/21 06:33:44;;;;;;;9.43;1.77;;;;;;;;;;5045226;28;20227;-67
2022/02/21 06:36:09;;;;;;;13.43;1.73;;;;;;;;;;5045155;28;20438;-67
2022/02/21 06:38:36;;;;;;;15.17;1.50;;;;;;;;;;5045249;28;20189;-67
2022/02/21 06:41:02;;;;;;;12.50;1.67;;;;;;;;;;5045496;28;20200;-67
2022/02/21 06:43:27;;;;;;;12.10;1.60;;;;;;;;;;5046164;28;20468;-67
2022/02/21 06:45:52;;;;;;;10.40;1.63;;;;;;;;;;5048952;28;20535;-67
2022/02/21 06:48:18;;;;;;;16.60;1.97;;;;;;;;;;5041957;28;20194;-68
2022/02/21 06:50:43;;;;;;;12.90;2.03;;;;;;;;;;5044202;28;20224;-68
2022/02/21 06:53:09;;;;;;;14.60;1.77;;;;;;;;;;5044044;28;20193;-67
2022/02/21 06:55:34;;;;;;;16.43;1.63;;;;;;;;;;5045899;28;20728;-67
2022/02/21 06:57:59;;;;;;;14.17;1.80;;;;;;;;;;5043800;28;20645;-68
2022/02/21 07:00:25;;;;;;;14.00;1.97;;;;;;;;;;5041230;28;20189;-67
2022/02/21 07:02:51;;;;;;;13.67;2.30;;;;;;;;;;5044595;28;20299;-68
2022/02/21 07:05:17;;;;;;;15.93;2.23;;;;;;;;;;5041080;28;20208;-67
2022/02/21 07:07:42;;;;;;;14.33;1.83;;;;;;;;;;5044914;28;20209;-67
2022/02/21 07:10:08;;;;;;;14.73;1.70;;;;;;;;;;5047424;28;20237;-68
2022/02/21 07:12:34;;;;;;;13.10;1.97;;;;;;;;;;5050839;28;20182;-68
2022/02/21 07:14:59;;;;;;;16.83;2.50;;;;;;;;;;5044186;28;20293;-68
2022/02/21 07:17:25;;;;;;;12.23;1.53;;;;;;;;;;5042483;28;20200;-68
2022/02/21 07:19:51;;;;;;;12.73;2.17;;;;;;;;;;5040465;28;20530;-68
2022/02/21 07:22:17;;;;;;;11.10;1.60;;;;;;;;;;5043526;28;20891;-67
2022/02/21 07:24:42;;;;;;;7.90;1.73;;;;;;;;;;5043430;28;20212;-67
2022/02/21 07:27:08;;;;;;;17.67;2.33;;;;;;;;;;5049358;28;20281;-67
2022/02/21 07:29:36;;;;;;;13.03;2.03;;;;;;;;;;5045019;28;20301;-67
2022/02/21 07:32:05;;;;;;;19.00;2.17;;;;;;;;;;5039624;28;20557;-67
2022/02/21 07:34:31;;;;;;;15.53;1.80;;;;;;;;;;5044192;28;20186;-67
2022/02/21 07:36:56;;;;;;;18.30;1.90;;;;;;;;;;5047307;28;20563;-67
2022/02/21 07:39:21;;;;;;;14.13;1.73;;;;;;;;;;5044217;28;20187;-67
2022/02/21 07:41:47;;;;;;;10.13;1.63;;;;;;;;;;5041115;28;20190;-67
2022/02/21 07:44:12;;;;;;;15.27;1.90;;;;;;;;;;5044649;28;20186;-67
2022/02/21 07:46:38;;;;;;;10.30;1.83;;;;;;;;;;5041707;28;20297;-67
2022/02/21 07:49:03;;;;;;;9.27;1.67;;;;;;;;;;5046784;28;20189;-67
2022/02/21 07:51:28;;;;;;;9.37;1.97;;;;;;;;;;5048218;28;20686;-67
2022/02/21 07:53:55;;;;;;;14.70;1.73;;;;;;;;;;5044003;28;20602;-67
2022/02/21 07:56:20;;;;;;;11.40;1.90;;;;;;;;;;5041284;28;20221;-67
2022/02/21 07:58:46;;;;;;;19.43;2.33;;;;;;;;;;5039230;28;20667;-67
2022/02/21 08:01:11;;;;;;;14.53;2.10;;;;;;;;;;5044842;28;20232;-67
2022/02/21 08:03:37;;;;;;;12.33;1.90;;;;;;;;;;5042726;28;20600;-67
2022/02/21 08:06:07;;;;;;;14.90;1.87;;;;;;;;;;5043457;28;20258;-67
2022/02/21 08:08:32;;;;;;;8.03;1.83;;;;;;;;;;5049347;28;20277;-67
2022/02/21 08:10:58;;;;;;;10.03;1.70;;;;;;;;;;5044099;28;20338;-67
2022/02/21 08:13:23;;;;;;;17.50;1.50;;;;;;;;;;5039068;28;20185;-67
2022/02/21 08:15:48;;;;;;;14.47;1.90;;;;;;;;;;5045138;28;20178;-67
2022/02/21 08:18:14;;;;;;;12.70;2.00;;;;;;;;;;5043719;28;20280;-67
2022/02/21 08:20:39;;;;;;;15.07;2.03;;;;;;;;;;5040389;28;20169;-67
2022/02/21 08:23:05;;;;;;;11.27;2.10;;;;;;;;;;5047181;28;20580;-68
2022/02/21 08:25:30;;;;;;;10.77;1.80;;;;;;;;;;5052789;28;20272;-66
2022/02/21 08:27:56;;;;;;;14.83;2.90;;;;;;;;;;5050512;28;20189;-68
2022/02/21 08:30:22;;;;;;;10.00;1.47;;;;;;;;;;5047338;28;20548;-66
2022/02/21 08:32:48;;;;;;;8.33;2.80;;;;;;;;;;5045815;28;20276;-66
2022/02/21 08:35:14;;;;;;;19.40;2.30;;;;;;;;;;5044015;28;20284;-66
2022/02/21 08:37:40;;;;;;;12.70;2.10;;;;;;;;;;5040556;28;20655;-66
2022/02/21 08:40:09;;;;;;;11.47;1.80;;;;;;;;;;5054283;28;20226;-66
2022/02/21 08:42:35;;;;;;;12.10;1.63;;;;;;;;;;5044070;28;20560;-66
2022/02/21 08:45:01;;;;;;;10.50;1.77;;;;;;;;;;5058113;28;20663;-67
2022/02/21 08:47:26;;;;;;;14.23;2.07;;;;;;;;;;5042542;28;20189;-68
2022/02/21 08:49:52;;;;;;;14.13;1.70;;;;;;;;;;5044941;28;20229;-68
2022/02/21 08:52:17;;;;;;;11.87;2.20;;;;;;;;;;5043096;28;20189;-68
2022/02/21 08:54:43;;;;;;;13.83;1.90;;;;;;;;;;5048800;28;20653;-67
2022/02/21 08:57:09;;;;;;;9.80;1.90;;;;;;;;;;5044512;28;20190;-68
2022/02/21 08:59:35;;;;;;;12.13;2.20;;;;;;;;;;5043145;28;20679;-67
2022/02/21 09:02:00;;;;;;;13.50;2.20;;;;;;;;;;5045434;28;20189;-68
2022/02/21 09:04:26;;;;;;;13.83;1.97;;;;;;;;;;5041795;28;20659;-67
2022/02/21 09:06:51;;;;;;;14.00;2.07;;;;;;;;;;5054765;28;20177;-68
2022/02/21 09:09:18;;;;;;;14.90;1.70;;;;;;;;;;5044611;28;20189;-67
2022/02/21 09:11:44;;;;;;;20.47;2.43;;;;;;;;;;5054440;28;20232;-67
2022/02/21 09:14:09;;;;;;;21.37;3.03;;;;;;;;;;5040651;28;20186;-69
2022/02/21 09:16:35;;;;;;;11.07;1.90;;;;;;;;;;5050528;28;20362;-67
2022/02/21 09:19:00;;;;;;;13.50;2.00;;;;;;;;;;5042925;28;20664;-68
2022/02/21 09:21:25;;;;;;;7.70;1.43;;;;;;;;;;5052929;28;20232;-73
2022/02/21 09:23:51;;;;;;;7.20;1.23;;;;;;;;;;5043647;28;20181;-72
2022/02/21 09:26:17;;;;;;;8.77;1.37;;;;;;;;;;5048995;28;20196;-71
2022/02/21 09:28:42;;;;;;;12.67;1.60;;;;;;;;;;5047799;28;20245;-72
2022/02/21 09:31:08;;;;;;;9.37;1.40;;;;;;;;;;5045549;28;20212;-72
2022/02/21 09:33:33;;;;;;;10.10;1.60;;;;;;;;;;5050379;28;20188;-73
2022/02/21 09:35:59;;;;;;;14.13;1.70;;;;;;;;;;5050877;28;20315;-70
2022/02/21 09:38:24;;;;;;;11.00;1.60;;;;;;;;;;5049813;28;20184;-72
2022/02/21 09:40:54;;;;;;;14.00;1.57;;;;;;;;;;5051692;28;20173;-72
2022/02/21 09:43:25;;;;;;;10.87;1.60;;;;;;;;;;5050328;28;20177;-71
2022/02/21 09:45:56;;;;;;;12.50;1.97;;;;;;;;;;5048794;28;20201;-73
2022/02/21 09:48:22;;;;;;;8.10;1.20;;;;;;;;;;5054517;28;20177;-73
2022/02/21 09:50:48;;;;;;;14.20;1.43;;;;;;;;;;5044704;28;20252;-72
2022/02/21 09:53:13;;;;;;;8.73;1.63;;;;;;;;;;5053355;28;20283;-72
2022/02/21 09:55:41;;;;;;;11.90;1.40;;;;;;;;;;5044653;28;20425;-73
2022/02/21 09:58:06;;;;;;;10.27;1.53;;;;;;;;;;5052740;28;20577;-71
2022/02/21 10:00:32;;;;;;;11.77;1.80;;;;;;;;;;5048835;28;20181;-73
2022/02/21 10:02:58;;;;;;;9.50;2.20;;;;;;;;;;5051690;28;20184;-72
2022/02/21 10:05:28;;;;;;;17.80;1.40;;;;;;;;;;5047422;28;20185;-72
2022/02/21 10:07:56;;;;;;;9.00;1.30;;;;;;;;;;5052788;28;20692;-71
2022/02/21 10:10:23;;;;;;;9.53;1.80;;;;;;;;;;5052447;28;20590;-72
2022/02/21 10:12:51;;;;;;;8.80;1.40;;;;;;;;;;5045583;28;20193;-72
2022/02/21 10:15:23;;;;;;;9.33;1.20;;;;;;;;;;5049194;28;20195;-73
2022/02/21 10:17:50;;;;;;;8.37;1.57;;;;;;;;;;5047119;28;20289;-71
2022/02/21 10:20:18;;;;;;;10.97;1.43;;;;;;;;;;5043744;28;20176;-70
2022/02/21 10:23:01;;;;;;;12.40;1.60;;;;;;;;;;5037353;28;20186;-71
2022/02/21 10:25:27;;;;;;;5.80;1.50;;;;;;;;;;5042296;28;20204;-72
2022/02/21 10:27:52;;;;;;;8.80;2.10;;;;;;;;;;5042453;28;20584;-69
2022/02/21 10:30:17;;;;;;;6.13;1.83;;;;;;;;;;5055353;28;20290;-71
2022/02/21 10:32:44;;;;;;;6.80;1.20;;;;;;;;;;5041161;28;20186;-72
2022/02/21 10:35:19;;;;;;;8.20;1.50;;;;;;;;;;5051218;28;20269;-72
2022/02/21 10:37:48;;;;;;;7.90;1.10;;;;;;;;;;4342289;28;10001568;-71
2022/02/21 10:40:17;;;;;;;4.87;1.00;;;;;;;;;;5038749;28;20242;-71
2022/02/21 10:42:44;;;;;;;5.97;1.20;;;;;;;;;;5039820;28;20633;-71
2022/02/21 10:45:17;;;;;;;4.63;1.20;;;;;;;;;;5035690;28;20580;-70
2022/02/21 10:48:02;;;;;;;6.27;1.27;;;;;;;;;;5039598;28;20185;-70
2022/02/21 10:50:29;;;;;;;4.53;1.33;;;;;;;;;;5040034;28;20209;-72
2022/02/21 10:52:54;;;;;;;4.93;1.40;;;;;;;;;;5038522;28;20182;-70
2022/02/21 10:55:20;;;;;;;4.47;1.17;;;;;;;;;;5040676;28;20193;-70
2022/02/21 10:57:47;;;;;;;5.77;1.27;;;;;;;;;;5043554;28;20185;-73
2022/02/21 11:00:13;;;;;;;7.67;1.20;;;;;;;;;;5042306;28;20177;-72
2022/02/21 11:02:41;;;;;;;4.33;1.10;;;;;;;;;;5039557;28;20579;-73
2022/02/21 11:05:09;;;;;;;3.60;1.00;;;;;;;;;;5044611;28;20534;-70
2022/02/21 11:07:36;;;;;;;4.60;1.17;;;;;;;;;;5042486;28;20186;-72
2022/02/21 11:10:03;;;;;;;5.60;1.10;;;;;;;;;;5043700;28;20247;-70
2022/02/21 11:12:34;;;;;;;4.53;1.10;;;;;;;;;;5041772;28;20196;-69
2022/02/21 11:15:01;;;;;;;5.50;1.13;;;;;;;;;;5040334;28;20237;-70
2022/02/21 11:17:28;;;;;;;3.17;1.00;;;;;;;;;;5044665;28;20225;-69
2022/02/21 11:19:53;;;;;;;3.53;1.00;;;;;;;;;;5043664;28;20186;-70
2022/02/21 11:22:19;;;;;;;4.23;1.07;;;;;;;;;;5041538;28;20189;-68
2022/02/21 11:25:25;;;;;;;2.47;0.70;;;;;;;;;;5045046;28;20212;-71
2022/02/21 11:28:01;;;;;;;3.50;0.93;;;;;;;;;;5044747;28;20727;-70
2022/02/21 11:30:28;;;;;;;3.90;0.73;;;;;;;;;;5037103;28;20296;-70
2022/02/21 11:33:04;;;;;;;3.87;0.90;;;;;;;;;;5038114;28;20192;-69
2022/02/21 11:35:30;;;;;;;3.70;0.90;;;;;;;;;;5045643;28;20275;-72
2022/02/21 11:38:12;;;;;;;4.87;0.93;;;;;;;;;;5059311;28;20192;-71
2022/02/21 11:41:09;;;;;;;1.73;0.60;;;;;;;;;;5043479;28;20830;-73
2022/02/21 11:43:43;;;;;;;6.50;1.20;;;;;;;;;;5042937;28;20213;-70
2022/02/21 11:46:12;;;;;;;2.07;0.60;;;;;;;;;;5047269;28;20396;-73
2022/02/21 11:48:54;;;;;;;3.27;0.90;;;;;;;;;;5048381;28;20672;-72
2022/02/21 11:51:32;;;;;;;4.53;0.87;;;;;;;;;;5051230;28;20200;-73
2022/02/21 11:54:13;;;;;;;3.70;0.67;;;;;;;;;;5041567;28;20280;-71
2022/02/21 11:56:56;;;;;;;3.57;0.50;;;;;;;;;;5050478;28;20213;-72
2022/02/21 11:59:21;;;;;;;2.60;0.60;;;;;;;;;;5045240;28;20208;-72
2022/02/21 12:01:48;;;;;;;1.77;0.60;;;;;;;;;;5038292;28;20657;-73
2022/02/21 12:04:18;;;;;;;2.80;0.90;;;;;;;;;;5046188;28;20193;-72
2022/02/21 12:06:51;;;;;;;4.63;0.80;;;;;;;;;;5050946;28;20193;-72
2022/02/21 12:09:16;;;;;;;3.53;0.90;;;;;;;;;;5050967;28;20747;-72
2022/02/21 12:11:42;;;;;;;3.30;0.63;;;;;;;;;;5052305;28;20230;-72
2022/02/21 12:14:07;;;;;;;2.47;0.63;;;;;;;;;;5045327;28;20500;-71
2022/02/21 12:16:33;;;;;;;4.50;0.90;;;;;;;;;;5044373;28;20663;-72
2022/02/21 12:18:58;;;;;;;2.17;0.67;;;;;;;;;;5047961;28;20235;-73
2022/02/21 12:21:28;;;;;;;4.83;0.60;;;;;;;;;;5043654;28;20264;-73
2022/02/21 12:23:58;;;;;;;4.83;0.80;;;;;;;;;;5043120;28;20668;-72
2022/02/21 12:26:44;;;;;;;3.63;0.87;;;;;;;;;;5042443;28;20535;-73
2022/02/21 12:29:16;;;;;;;5.03;0.90;;;;;;;;;;5050508;28;20228;-73
2022/02/21 12:31:55;;;;;;;8.77;1.10;;;;;;;;;;5049486;28;20213;-72
2022/02/21 12:34:23;;;;;;;7.03;0.90;;;;;;;;;;5043816;28;20182;-73
2022/02/21 12:36:50;;;;;;;2.60;0.97;;;;;;;;;;5055464;28;20188;-72
2022/02/21 12:39:21;;;;;;;6.07;1.07;;;;;;;;;;5046961;28;20208;-72
2022/02/21 12:41:50;;;;;;;4.33;1.07;;;;;;;;;;5058400;28;20211;-72
2022/02/21 12:44:16;;;;;;;10.20;1.47;;;;;;;;;;5047110;28;20186;-70
2022/02/21 12:46:44;;;;;;;9.20;2.37;;;;;;;;;;5056180;28;20168;-72
2022/02/21 12:49:31;;;;;;;12.80;1.60;;;;;;;;;;5047919;28;20245;-73
2022/02/21 12:52:06;;;;;;;8.30;1.93;;;;;;;;;;5040273;28;20283;-71
2022/02/21 12:54:34;;;;;;;7.70;1.40;;;;;;;;;;5048246;28;20183;-71
2022/02/21 12:57:02;;;;;;;12.00;1.70;;;;;;;;;;5054891;28;20196;-71
2022/02/21 12:59:34;;;;;;;8.10;2.00;;;;;;;;;;5048853;28;20184;-71
2022/02/21 13:02:05;;;;;;;9.80;1.27;;;;;;;;;;5051536;28;20196;-71
2022/02/21 13:04:35;;;;;;;11.63;1.67;;;;;;;;;;5048631;28;20189;-71
2022/02/21 13:07:02;;;;;;;9.17;1.77;;;;;;;;;;5048238;28;20250;-74
2022/02/21 13:09:28;;;;;;;12.23;1.63;;;;;;;;;;5051973;28;20189;-72
2022/02/21 13:11:54;;;;;;;18.23;2.53;;;;;;;;;;5056001;28;20607;-71
2022/02/21 13:14:31;;;;;;;20.60;3.53;;;;;;;;;;5035032;28;20269;-70
2022/02/21 13:17:06;;;;;;;18.03;2.70;;;;;;;;;;5043534;28;20589;-70
2022/02/21 13:19:33;;;;;;;21.87;2.83;;;;;;;;;;5039706;28;20189;-69
2022/02/21 13:22:23;;;;;;;17.87;2.50;;;;;;;;;;5042365;28;20220;-70
2022/02/21 13:24:48;;;;;;;16.20;2.93;;;;;;;;;;5042138;28;20201;-71
2022/02/21 13:27:21;;;;;;;16.50;2.63;;;;;;;;;;5041880;28;20496;-73
2022/02/21 13:29:47;;;;;;;21.33;2.63;;;;;;;;;;5044496;28;20572;-72
2022/02/21 13:32:15;;;;;;;24.10;2.63;;;;;;;;;;5042996;28;20215;-71
2022/02/21 13:34:58;;;;;;;22.47;2.57;;;;;;;;;;5048017;28;20188;-74
2022/02/21 13:37:24;;;;;;;23.03;2.80;;;;;;;;;;5045966;28;20185;-74
2022/02/21 13:39:58;;;;;;;21.10;2.90;;;;;;;;;;5042051;28;20177;-74
2022/02/21 13:42:35;;;;;;;19.07;2.67;;;;;;;;;;5056471;28;20186;-71
2022/02/21 13:45:21;;;;;;;26.03;2.43;;;;;;;;;;5041019;28;20279;-74
2022/02/21 13:48:00;;;;;;;19.87;2.63;;;;;;;;;;5051888;28;20526;-73
2022/02/21 13:50:38;;;;;;;20.87;3.13;;;;;;;;;;5042411;28;20637;-71
2022/02/21 13:53:05;;;;;;;21.73;2.30;;;;;;;;;;5043927;28;20738;-71
2022/02/21 13:55:34;;;;;;;21.53;3.20;;;;;;;;;;5041198;28;20217;-70
2022/02/21 13:58:01;;;;;;;16.00;2.47;;;;;;;;;;5040340;28;20613;-70
2022/02/21 14:00:45;;;;;;;18.10;2.40;;;;;;;;;;5048563;28;20200;-69
2022/02/21 14:03:12;;;;;;;14.50;2.90;;;;;;;;;;5040885;28;20314;-69
2022/02/21 14:06:06;;;;;;;19.10;2.17;;;;;;;;;;5047471;28;20281;-69
2022/02/21 14:08:49;;;;;;;21.43;2.40;;;;;;;;;;5041402;28;20192;-69
2022/02/21 14:11:18;;;;;;;24.20;2.83;;;;;;;;;;5038782;28;20239;-68
2022/02/21 14:13:43;;;;;;;16.93;1.97;;;;;;;;;;5042511;28;20193;-69
2022/02/21 14:16:09;;;;;;;21.10;2.07;;;;;;;;;;5037747;28;20201;-68
2022/02/21 14:18:36;;;;;;;13.13;2.03;;;;;;;;;;5047013;28;20181;-68
2022/02/21 14:21:06;;;;;;;21.63;2.60;;;;;;;;;;5040092;28;20196;-68
2022/02/21 14:23:33;;;;;;;13.73;2.50;;;;;;;;;;5056199;28;20178;-68
2022/02/21 14:25:58;;;;;;;17.87;2.20;;;;;;;;;;5038268;28;20634;-68
2022/02/21 14:28:24;;;;;;;19.30;2.03;;;;;;;;;;5044057;28;20190;-68
2022/02/21 14:30:49;;;;;;;11.47;2.17;;;;;;;;;;5045121;28;20237;-67
2022/02/21 14:33:15;;;;;;;7.83;1.33;;;;;;;;;;5048316;28;20216;-68